Decoded Metar for LFLL (LYON ST. EXUPERY in FRANCE) (IATA:LYS) | Meteo·Mobile Aviation Weather
aviador You're here:

LFLL Decoded Metar

LYON ST. EXUPERY in FRANCE
Report Time2019-07-16 10:00:00
UTC Time2019-07-16 10:21:59
Flight Rules vfr VFR
Wind330° at 07 kt
W.Decomp.*RWY 36: 6.0 kt HW 3.6 kt LCW
Visibility9999 m
Phenomena:N/A
Clouds:Few 043 Hf
Expected CloudBase > 4,400 ft AGL from Temp-Dew spread
CeilingNone
Temp24°C (ISA +11)
Dew Point13°C (50% RH)
AAT22.4°C
QNH1017 hPa
Density Alt2,080 ft
Elevation787 ft
Report Wrong Elevation
Raw Report
METAR LFLL 161000Z 33007KT 290V010 9999 FEW043 24/13 Q1017 NOSIG=

Extra information for LFLL:More info

Metar Taf Metar & Taf Last 4 Metars F.Rules Stats Wind Profile Meteogram Temp Stats Airport Information Weather charts Add Link Nearby VenuesMetar ALERT Operation Metar Decoded Social comments